sensor_id;sensor_type;location;lat;lon;timestamp;pressure;altitude;pressure_sealevel;temperature;humidity
46023;BME280;31756;47.936;16.224;2023-01-31T00:00:22;98591.72;;;3.06;100.00
46023;BME280;31756;47.936;16.224;2023-01-31T00:02:48;98567.94;;;2.93;100.00
46023;BME280;31756;47.936;16.224;2023-01-31T00:05:13;98591.63;;;2.95;100.00
46023;BME280;31756;47.936;16.224;2023-01-31T00:07:39;98584.13;;;3.06;100.00
46023;BME280;31756;47.936;16.224;2023-01-31T00:10:05;98601.09;;;3.13;100.00
46023;BME280;31756;47.936;16.224;2023-01-31T00:12:33;98607.06;;;3.22;100.00
46023;BME280;31756;47.936;16.224;2023-01-31T00:14:59;98586.81;;;3.22;100.00
46023;BME280;31756;47.936;16.224;2023-01-31T00:17:25;98574.19;;;3.26;100.00
46023;BME280;31756;47.936;16.224;2023-01-31T00:19:51;98577.59;;;3.29;100.00
46023;BME280;31756;47.936;16.224;2023-01-31T00:22:17;98590.31;;;3.35;100.00
46023;BME280;31756;47.936;16.224;2023-01-31T00:24:42;98594.53;;;3.35;100.00
46023;BME280;31756;47.936;16.224;2023-01-31T00:27:08;98597.97;;;3.41;100.00
46023;BME280;31756;47.936;16.224;2023-01-31T00:29:33;98568.38;;;3.37;100.00
46023;BME280;31756;47.936;16.224;2023-01-31T00:31:59;98599.56;;;3.30;100.00
46023;BME280;31756;47.936;16.224;2023-01-31T00:34:24;98588.63;;;3.36;100.00
46023;BME280;31756;47.936;16.224;2023-01-31T00:36:50;98603.81;;;3.36;100.00
46023;BME280;31756;47.936;16.224;2023-01-31T00:39:16;98595.44;;;3.41;100.00
46023;BME280;31756;47.936;16.224;2023-01-31T00:41:43;98592.03;;;3.38;100.00
46023;BME280;31756;47.936;16.224;2023-01-31T00:44:11;98596.25;;;3.39;100.00
46023;BME280;31756;47.936;16.224;2023-01-31T00:46:37;98625.00;;;3.39;100.00
46023;BME280;31756;47.936;16.224;2023-01-31T00:49:03;98609.75;;;3.38;100.00
46023;BME280;31756;47.936;16.224;2023-01-31T00:51:28;98601.22;;;3.28;100.00
46023;BME280;31756;47.936;16.224;2023-01-31T00:53:54;98568.13;;;3.11;100.00
46023;BME280;31756;47.936;16.224;2023-01-31T00:56:22;98571.53;;;3.13;100.00
46023;BME280;31756;47.936;16.224;2023-01-31T00:58:48;98611.25;;;3.16;100.00
46023;BME280;31756;47.936;16.224;2023-01-31T01:01:22;98593.44;;;3.10;100.00
46023;BME280;31756;47.936;16.224;2023-01-31T01:03:49;98587.59;;;3.14;100.00
46023;BME280;31756;47.936;16.224;2023-01-31T01:06:15;98628.94;;;3.13;100.00
46023;BME280;31756;47.936;16.224;2023-01-31T01:08:42;98639.69;;;2.92;100.00
46023;BME280;31756;47.936;16.224;2023-01-31T01:11:10;98630.22;;;2.78;100.00
46023;BME280;31756;47.936;16.224;2023-01-31T01:13:37;98619.94;;;2.62;100.00
46023;BME280;31756;47.936;16.224;2023-01-31T01:16:06;98628.41;;;2.66;100.00
46023;BME280;31756;47.936;16.224;2023-01-31T01:18:33;98616.63;;;2.66;100.00
46023;BME280;31756;47.936;16.224;2023-01-31T01:23:31;98619.28;;;2.79;100.00
46023;BME280;31756;47.936;16.224;2023-01-31T01:26:00;98621.19;;;2.96;100.00
46023;BME280;31756;47.936;16.224;2023-01-31T01:28:32;98605.19;;;3.00;100.00
46023;BME280;31756;47.936;16.224;2023-01-31T01:30:58;98605.31;;;3.14;100.00
46023;BME280;31756;47.936;16.224;2023-01-31T01:33:24;98611.25;;;3.16;100.00
46023;BME280;31756;47.936;16.224;2023-01-31T01:35:49;98574.84;;;3.05;100.00
46023;BME280;31756;47.936;16.224;2023-01-31T01:38:15;98602.00;;;3.21;100.00
46023;BME280;31756;47.936;16.224;2023-01-31T01:40:41;98606.25;;;3.22;100.00
46023;BME280;31756;47.936;16.224;2023-01-31T01:43:09;98573.22;;;3.13;100.00
46023;BME280;31756;47.936;16.224;2023-01-31T01:45:36;98595.25;;;3.21;100.00
46023;BME280;31756;47.936;16.224;2023-01-31T01:48:05;98610.44;;;3.23;100.00
46023;BME280;31756;47.936;16.224;2023-01-31T01:50:37;98623.22;;;3.32;100.00
46023;BME280;31756;47.936;16.224;2023-01-31T01:55:39;98604.69;;;3.35;100.00
46023;BME280;31756;47.936;16.224;2023-01-31T01:58:31;98628.25;;;3.29;100.00
46023;BME280;31756;47.936;16.224;2023-01-31T02:00:58;98603.00;;;3.40;100.00
46023;BME280;31756;47.936;16.224;2023-01-31T02:03:25;98603.88;;;3.39;100.00
46023;BME280;31756;47.936;16.224;2023-01-31T02:05:53;98609.69;;;3.29;100.00
46023;BME280;31756;47.936;16.224;2023-01-31T02:08:23;98624.94;;;3.36;100.00
46023;BME280;31756;47.936;16.224;2023-01-31T02:13:21;98621.66;;;3.46;100.00
46023;BME280;31756;47.936;16.224;2023-01-31T02:15:47;98593.72;;;3.39;100.00
46023;BME280;31756;47.936;16.224;2023-01-31T02:18:14;98632.66;;;3.48;100.00
46023;BME280;31756;47.936;16.224;2023-01-31T02:46:33;98626.66;;;3.39;100.00
46023;BME280;31756;47.936;16.224;2023-01-31T02:49:06;98634.38;;;3.52;100.00
46023;BME280;31756;47.936;16.224;2023-01-31T02:51:38;98660.66;;;3.60;100.00
46023;BME280;31756;47.936;16.224;2023-01-31T02:54:14;98635.22;;;3.50;100.00
46023;BME280;31756;47.936;16.224;2023-01-31T02:56:44;98637.72;;;3.48;100.00
46023;BME280;31756;47.936;16.224;2023-01-31T03:01:46;98631.75;;;3.42;100.00
46023;BME280;31756;47.936;16.224;2023-01-31T03:04:14;98696.97;;;3.56;100.00
46023;BME280;31756;47.936;16.224;2023-01-31T03:09:13;98668.19;;;3.54;100.00
46023;BME280;31756;47.936;16.224;2023-01-31T03:14:39;98673.19;;;3.48;100.00
46023;BME280;31756;47.936;16.224;2023-01-31T03:20:23;98659.72;;;3.51;100.00
46023;BME280;31756;47.936;16.224;2023-01-31T03:22:57;98692.81;;;3.67;100.00
46023;BME280;31756;47.936;16.224;2023-01-31T03:25:28;98665.78;;;3.66;100.00
46023;BME280;31756;47.936;16.224;2023-01-31T03:28:05;98685.13;;;3.58;100.00
46023;BME280;31756;47.936;16.224;2023-01-31T03:33:22;98686.75;;;3.50;100.00
46023;BME280;31756;47.936;16.224;2023-01-31T03:36:05;98676.72;;;3.62;100.00
46023;BME280;31756;47.936;16.224;2023-01-31T03:38:36;98692.75;;;3.61;100.00
46023;BME280;31756;47.936;16.224;2023-01-31T03:41:13;98707.09;;;3.61;100.00
46023;BME280;31756;47.936;16.224;2023-01-31T03:43:58;98690.28;;;3.64;100.00
46023;BME280;31756;47.936;16.224;2023-01-31T03:46:37;98719.88;;;3.70;100.00
46023;BME280;31756;47.936;16.224;2023-01-31T03:49:08;98693.66;;;3.69;100.00
46023;BME280;31756;47.936;16.224;2023-01-31T03:51:39;98668.22;;;3.57;100.00
46023;BME280;31756;47.936;16.224;2023-01-31T03:54:12;98710.59;;;3.69;100.00
46023;BME280;31756;47.936;16.224;2023-01-31T03:59:33;98704.63;;;3.65;100.00
46023;BME280;31756;47.936;16.224;2023-01-31T04:02:02;98693.75;;;3.79;100.00
46023;BME280;31756;47.936;16.224;2023-01-31T04:04:49;98724.94;;;3.70;100.00
46023;BME280;31756;47.936;16.224;2023-01-31T04:07:17;98688.56;;;3.63;100.00
46023;BME280;31756;47.936;16.224;2023-01-31T04:09:42;98662.16;;;3.42;100.00
46023;BME280;31756;47.936;16.224;2023-01-31T04:12:13;98685.03;;;3.49;100.00
46023;BME280;31756;47.936;16.224;2023-01-31T04:14:40;98679.22;;;3.59;100.00
46023;BME280;31756;47.936;16.224;2023-01-31T04:17:06;98678.34;;;3.57;100.00
46023;BME280;31756;47.936;16.224;2023-01-31T04:19:32;98676.75;;;3.64;100.00
46023;BME280;31756;47.936;16.224;2023-01-31T04:21:58;98660.72;;;3.68;100.00
46023;BME280;31756;47.936;16.224;2023-01-31T04:24:24;98653.00;;;3.54;100.00
46023;BME280;31756;47.936;16.224;2023-01-31T04:26:50;98662.09;;;3.36;100.00
46023;BME280;31756;47.936;16.224;2023-01-31T04:29:15;98680.81;;;3.47;100.00
46023;BME280;31756;47.936;16.224;2023-01-31T04:31:42;98691.69;;;3.38;100.00
46023;BME280;31756;47.936;16.224;2023-01-31T04:34:08;98690.06;;;3.43;100.00
46023;BME280;31756;47.936;16.224;2023-01-31T04:36:34;98700.19;;;3.43;100.00
46023;BME280;31756;47.936;16.224;2023-01-31T04:38:59;98700.03;;;3.28;100.00
46023;BME280;31756;47.936;16.224;2023-01-31T04:41:25;98700.16;;;3.42;100.00
46023;BME280;31756;47.936;16.224;2023-01-31T04:43:51;98710.34;;;3.45;100.00
46023;BME280;31756;47.936;16.224;2023-01-31T04:46:17;98721.28;;;3.42;100.00
46023;BME280;31756;47.936;16.224;2023-01-31T04:48:43;98695.94;;;3.41;100.00
46023;BME280;31756;47.936;16.224;2023-01-31T04:51:09;98710.34;;;3.45;100.00
46023;BME280;31756;47.936;16.224;2023-01-31T04:53:35;98683.97;;;3.28;100.00
46023;BME280;31756;47.936;16.224;2023-01-31T04:56:02;98704.47;;;3.47;100.00
46023;BME280;31756;47.936;16.224;2023-01-31T04:58:28;98710.31;;;3.42;100.00
46023;BME280;31756;47.936;16.224;2023-01-31T05:00:54;98687.59;;;3.51;100.00
46023;BME280;31756;47.936;16.224;2023-01-31T05:03:19;98697.75;;;3.51;100.00
46023;BME280;31756;47.936;16.224;2023-01-31T05:05:49;98714.50;;;3.40;100.00
46023;BME280;31756;47.936;16.224;2023-01-31T05:08:16;98709.44;;;3.40;100.00
46023;BME280;31756;47.936;16.224;2023-01-31T05:10:42;98707.84;;;3.49;100.00
46023;BME280;31756;47.936;16.224;2023-01-31T05:13:09;98681.53;;;3.37;100.00
46023;BME280;31756;47.936;16.224;2023-01-31T05:15:35;98716.25;;;3.45;100.00
46023;BME280;31756;47.936;16.224;2023-01-31T05:18:00;98719.50;;;3.32;100.00
46023;BME280;31756;47.936;16.224;2023-01-31T05:20:30;98731.53;;;3.51;100.00
46023;BME280;31756;47.936;16.224;2023-01-31T05:22:58;98747.66;;;3.56;100.00
46023;BME280;31756;47.936;16.224;2023-01-31T05:25:24;98735.91;;;3.66;100.00
46023;BME280;31756;47.936;16.224;2023-01-31T05:27:51;98747.66;;;3.61;100.00
46023;BME280;31756;47.936;16.224;2023-01-31T05:30:18;98689.09;;;3.31;100.00
46023;BME280;31756;47.936;16.224;2023-01-31T05:32:45;98738.31;;;3.54;100.00
46023;BME280;31756;47.936;16.224;2023-01-31T05:35:12;98719.63;;;3.44;100.00
46023;BME280;31756;47.936;16.224;2023-01-31T05:37:38;98741.75;;;3.59;100.00
46023;BME280;31756;47.936;16.224;2023-01-31T05:40:10;98746.00;;;3.60;100.00
46023;BME280;31756;47.936;16.224;2023-01-31T05:42:37;98713.75;;;3.48;100.00
46023;BME280;31756;47.936;16.224;2023-01-31T05:45:03;98734.09;;;3.54;100.00
46023;BME280;31756;47.936;16.224;2023-01-31T05:47:30;98761.06;;;3.48;100.00
46023;BME280;31756;47.936;16.224;2023-01-31T05:49:55;98735.78;;;3.57;100.00
46023;BME280;31756;47.936;16.224;2023-01-31T05:52:21;98718.69;;;3.36;100.00
46023;BME280;31756;47.936;16.224;2023-01-31T05:54:47;98728.81;;;3.35;100.00
46023;BME280;31756;47.936;16.224;2023-01-31T05:57:13;98761.06;;;3.48;100.00
46023;BME280;31756;47.936;16.224;2023-01-31T05:59:40;98749.97;;;3.38;100.00
46023;BME280;31756;47.936;16.224;2023-01-31T06:02:06;98747.31;;;3.29;100.00
46023;BME280;31756;47.936;16.224;2023-01-31T06:04:33;98772.78;;;3.40;100.00
46023;BME280;31756;47.936;16.224;2023-01-31T06:06:59;98761.00;;;3.43;100.00
46023;BME280;31756;47.936;16.224;2023-01-31T06:09:25;98767.63;;;3.32;100.00
46023;BME280;31756;47.936;16.224;2023-01-31T06:11:51;98794.84;;;3.47;100.00
46023;BME280;31756;47.936;16.224;2023-01-31T06:14:16;98748.06;;;3.20;100.00
46023;BME280;31756;47.936;16.224;2023-01-31T06:16:42;98774.31;;;3.27;100.00
46023;BME280;31756;47.936;16.224;2023-01-31T06:19:08;98805.69;;;3.35;100.00
46023;BME280;31756;47.936;16.224;2023-01-31T06:21:33;98807.44;;;3.41;100.00
46023;BME280;31756;47.936;16.224;2023-01-31T06:23:59;98799.84;;;3.42;100.00
46023;BME280;31756;47.936;16.224;2023-01-31T06:26:25;98820.91;;;3.38;100.00
46023;BME280;31756;47.936;16.224;2023-01-31T06:28:50;98848.78;;;3.40;100.00
46023;BME280;31756;47.936;16.224;2023-01-31T06:31:17;98842.78;;;3.32;100.00
46023;BME280;31756;47.936;16.224;2023-01-31T06:33:43;98828.25;;;3.18;100.00
46023;BME280;31756;47.936;16.224;2023-01-31T06:36:09;98848.59;;;3.25;100.00
46023;BME280;31756;47.936;16.224;2023-01-31T06:38:34;98859.66;;;3.31;100.00
46023;BME280;31756;47.936;16.224;2023-01-31T06:41:00;98824.13;;;3.25;100.00
46023;BME280;31756;47.936;16.224;2023-01-31T06:43:26;98827.25;;;3.07;100.00
46023;BME280;31756;47.936;16.224;2023-01-31T06:45:51;98851.97;;;3.22;100.00
46023;BME280;31756;47.936;16.224;2023-01-31T06:48:17;98880.63;;;3.18;100.00
46023;BME280;31756;47.936;16.224;2023-01-31T06:50:45;98860.25;;;3.12;100.00
46023;BME280;31756;47.936;16.224;2023-01-31T06:53:11;98888.31;;;3.26;100.00
46023;BME280;31756;47.936;16.224;2023-01-31T06:55:37;98884.97;;;3.27;100.00
46023;BME280;31756;47.936;16.224;2023-01-31T06:58:03;98875.47;;;3.15;100.00
46023;BME280;31756;47.936;16.224;2023-01-31T07:00:28;98871.25;;;3.12;100.00
46023;BME280;31756;47.936;16.224;2023-01-31T07:02:54;98898.44;;;3.27;100.00
46023;BME280;31756;47.936;16.224;2023-01-31T07:05:21;98909.50;;;3.32;100.00
46023;BME280;31756;47.936;16.224;2023-01-31T07:07:47;98888.53;;;3.42;100.00
46023;BME280;31756;47.936;16.224;2023-01-31T07:10:15;98885.19;;;3.43;100.00
46023;BME280;31756;47.936;16.224;2023-01-31T07:12:41;98879.25;;;3.44;100.00
46023;BME280;31756;47.936;16.224;2023-01-31T07:15:08;98899.69;;;3.55;100.00
46023;BME280;31756;47.936;16.224;2023-01-31T07:17:35;98909.03;;;3.59;100.00
46023;BME280;31756;47.936;16.224;2023-01-31T07:20:00;98908.16;;;3.57;100.00
46023;BME280;31756;47.936;16.224;2023-01-31T07:22:55;98899.75;;;3.59;100.00
46023;BME280;31756;47.936;16.224;2023-01-31T07:25:21;98900.59;;;3.61;100.00
46023;BME280;31756;47.936;16.224;2023-01-31T07:27:50;98906.63;;;3.68;100.00
46023;BME280;31756;47.936;16.224;2023-01-31T07:30:16;98924.38;;;3.68;100.00
46023;BME280;31756;47.936;16.224;2023-01-31T07:32:41;98919.34;;;3.74;100.00
46023;BME280;31756;47.936;16.224;2023-01-31T07:35:07;98937.97;;;3.75;100.00
46023;BME280;31756;47.936;16.224;2023-01-31T07:37:33;98915.09;;;3.70;100.00
46023;BME280;31756;47.936;16.224;2023-01-31T07:39:59;98918.50;;;3.74;100.00
46023;BME280;31756;47.936;16.224;2023-01-31T07:42:24;98916.91;;;3.80;100.00
46023;BME280;31756;47.936;16.224;2023-01-31T07:44:50;98934.75;;;3.88;100.00
46023;BME280;31756;47.936;16.224;2023-01-31T07:47:16;98958.47;;;3.90;100.00
46023;BME280;31756;47.936;16.224;2023-01-31T07:49:41;98944.09;;;3.90;100.00
46023;BME280;31756;47.936;16.224;2023-01-31T07:52:06;98948.38;;;3.94;100.00
46023;BME280;31756;47.936;16.224;2023-01-31T07:54:32;98950.91;;;3.96;100.00
46023;BME280;31756;47.936;16.224;2023-01-31T07:56:58;98989.00;;;3.97;100.00
46023;BME280;31756;47.936;16.224;2023-01-31T07:59:23;98980.56;;;3.98;100.00
46023;BME280;31756;47.936;16.224;2023-01-31T08:01:49;99013.53;;;4.00;100.00
46023;BME280;31756;47.936;16.224;2023-01-31T08:04:33;99028.88;;;4.09;100.00
46023;BME280;31756;47.936;16.224;2023-01-31T08:06:59;98993.44;;;4.15;100.00
46023;BME280;31756;47.936;16.224;2023-01-31T08:09:27;98987.56;;;4.19;100.00
46023;BME280;31756;47.936;16.224;2023-01-31T08:11:53;99001.19;;;4.29;100.00
46023;BME280;31756;47.936;16.224;2023-01-31T08:14:19;99030.84;;;4.31;100.00
46023;BME280;31756;47.936;16.224;2023-01-31T08:16:50;99005.31;;;4.18;100.00
46023;BME280;31756;47.936;16.224;2023-01-31T08:19:15;99006.91;;;4.09;100.00
46023;BME280;31756;47.936;16.224;2023-01-31T08:21:41;99034.63;;;3.96;100.00
46023;BME280;31756;47.936;16.224;2023-01-31T08:24:06;99025.06;;;3.78;100.00
46023;BME280;31756;47.936;16.224;2023-01-31T08:26:32;99032.50;;;3.64;100.00
46023;BME280;31756;47.936;16.224;2023-01-31T08:29:01;99019.59;;;3.52;100.00
46023;BME280;31756;47.936;16.224;2023-01-31T08:31:26;99033.84;;;3.44;100.00
46023;BME280;31756;47.936;16.224;2023-01-31T08:33:53;99039.53;;;3.31;100.00
46023;BME280;31756;47.936;16.224;2023-01-31T08:36:20;99047.75;;;3.16;100.00
46023;BME280;31756;47.936;16.224;2023-01-31T08:38:46;99037.56;;;3.12;100.00
46023;BME280;31756;47.936;16.224;2023-01-31T08:41:12;99064.69;;;3.17;100.00
46023;BME280;31756;47.936;16.224;2023-01-31T08:43:38;99042.06;;;3.30;100.00
46023;BME280;31756;47.936;16.224;2023-01-31T08:46:04;99040.41;;;3.32;100.00
46023;BME280;31756;47.936;16.224;2023-01-31T08:48:32;99073.63;;;3.48;100.00
46023;BME280;31756;47.936;16.224;2023-01-31T08:50:59;99044.13;;;3.52;100.00
46023;BME280;31756;47.936;16.224;2023-01-31T08:53:25;99030.56;;;3.50;100.00
46023;BME280;31756;47.936;16.224;2023-01-31T08:55:50;99013.78;;;3.56;100.00
46023;BME280;31756;47.936;16.224;2023-01-31T08:58:18;99032.41;;;3.60;100.00
46023;BME280;31756;47.936;16.224;2023-01-31T09:00:44;99040.88;;;3.62;100.00
46023;BME280;31756;47.936;16.224;2023-01-31T09:03:14;99008.03;;;3.69;100.00
46023;BME280;31756;47.936;16.224;2023-01-31T09:05:41;99043.66;;;3.77;100.00
46023;BME280;31756;47.936;16.224;2023-01-31T09:08:07;99022.59;;;3.83;100.00
46023;BME280;31756;47.936;16.224;2023-01-31T09:10:32;99030.25;;;3.87;100.00
46023;BME280;31756;47.936;16.224;2023-01-31T09:12:59;99032.00;;;3.90;100.00
46023;BME280;31756;47.936;16.224;2023-01-31T09:15:24;99012.34;;;3.75;100.00
46023;BME280;31756;47.936;16.224;2023-01-31T09:17:51;99024.03;;;3.64;100.00
46023;BME280;31756;47.936;16.224;2023-01-31T09:20:17;99045.25;;;3.69;100.00
46023;BME280;31756;47.936;16.224;2023-01-31T09:22:43;99040.84;;;3.59;100.00
46023;BME280;31756;47.936;16.224;2023-01-31T09:25:09;99051.91;;;3.65;100.00
46023;BME280;31756;47.936;16.224;2023-01-31T09:27:36;99039.97;;;3.57;100.00
46023;BME280;31756;47.936;16.224;2023-01-31T09:30:07;99033.13;;;3.53;100.00
46023;BME280;31756;47.936;16.224;2023-01-31T09:32:33;99082.53;;;3.76;100.00
46023;BME280;31756;47.936;16.224;2023-01-31T09:34:59;99085.81;;;3.71;100.00
46023;BME280;31756;47.936;16.224;2023-01-31T09:37:28;99077.03;;;3.50;100.00
46023;BME280;31756;47.936;16.224;2023-01-31T09:39:54;99088.84;;;3.50;100.00
46023;BME280;31756;47.936;16.224;2023-01-31T09:42:25;99070.88;;;3.35;100.00
46023;BME280;31756;47.936;16.224;2023-01-31T09:45:06;99037.59;;;3.13;100.00
46023;BME280;31756;47.936;16.224;2023-01-31T09:47:48;99047.72;;;3.15;100.00
46023;BME280;31756;47.936;16.224;2023-01-31T09:50:34;99077.63;;;3.36;100.00
46023;BME280;31756;47.936;16.224;2023-01-31T09:53:01;99054.22;;;3.50;100.00
46023;BME280;31756;47.936;16.224;2023-01-31T09:55:50;99064.25;;;3.43;100.00
46023;BME280;31756;47.936;16.224;2023-01-31T10:07:28;99029.53;;;3.94;100.00
46023;BME280;31756;47.936;16.224;2023-01-31T10:12:47;99032.25;;;4.06;100.00
46023;BME280;31756;47.936;16.224;2023-01-31T10:17:48;99025.50;;;4.10;100.00
46023;BME280;31756;47.936;16.224;2023-01-31T10:26:05;98987.31;;;3.99;100.00
46023;BME280;31756;47.936;16.224;2023-01-31T10:33:55;99032.56;;;4.34;100.00
46023;BME280;31756;47.936;16.224;2023-01-31T10:36:26;99017.34;;;4.34;100.00
46023;BME280;31756;47.936;16.224;2023-01-31T10:39:14;99039.31;;;4.32;100.00
46023;BME280;31756;47.936;16.224;2023-01-31T10:41:58;99001.13;;;4.20;100.00
46023;BME280;31756;47.936;16.224;2023-01-31T10:44:54;99018.22;;;4.37;100.00
46023;BME280;31756;47.936;16.224;2023-01-31T10:47:23;99056.19;;;4.27;100.00
46023;BME280;31756;47.936;16.224;2023-01-31T10:49:50;99025.78;;;4.31;100.00
46023;BME280;31756;47.936;16.224;2023-01-31T10:57:47;99027.56;;;4.38;100.00
46023;BME280;31756;47.936;16.224;2023-01-31T11:00:31;99037.91;;;4.53;100.00
46023;BME280;31756;47.936;16.224;2023-01-31T11:02:58;99017.66;;;4.63;100.00
46023;BME280;31756;47.936;16.224;2023-01-31T11:05:26;99073.56;;;4.67;100.00
46023;BME280;31756;47.936;16.224;2023-01-31T11:07:56;99027.91;;;4.69;100.00
46023;BME280;31756;47.936;16.224;2023-01-31T11:10:25;99033.75;;;4.63;100.00
46023;BME280;31756;47.936;16.224;2023-01-31T11:12:54;99027.69;;;4.50;100.00
46023;BME280;31756;47.936;16.224;2023-01-31T11:15:23;99040.38;;;4.49;100.00
46023;BME280;31756;47.936;16.224;2023-01-31T11:17:50;99032.66;;;4.41;100.00
46023;BME280;31756;47.936;16.224;2023-01-31T11:20:26;99037.66;;;4.34;100.00
46023;BME280;31756;47.936;16.224;2023-01-31T11:22:54;99069.78;;;4.33;100.00
46023;BME280;31756;47.936;16.224;2023-01-31T11:25:22;99003.97;;;3.82;100.00
46023;BME280;31756;47.936;16.224;2023-01-31T11:27:52;99023.78;;;4.07;100.00
46023;BME280;31756;47.936;16.224;2023-01-31T11:32:44;99033.03;;;4.04;100.00
46023;BME280;31756;47.936;16.224;2023-01-31T11:45:18;99002.88;;;4.27;100.00
46023;BME280;31756;47.936;16.224;2023-01-31T11:47:58;98986.53;;;4.05;100.00
46023;BME280;31756;47.936;16.224;2023-01-31T11:50:42;99009.63;;;4.23;100.00
46023;BME280;31756;47.936;16.224;2023-01-31T11:53:22;98999.47;;;4.23;100.00
46023;BME280;31756;47.936;16.224;2023-01-31T11:55:52;99030.84;;;4.28;100.00
46023;BME280;31756;47.936;16.224;2023-01-31T11:58:25;99006.34;;;4.32;100.00
46023;BME280;31756;47.936;16.224;2023-01-31T12:01:12;98997.94;;;4.39;100.00
46023;BME280;31756;47.936;16.224;2023-01-31T12:03:39;98953.91;;;4.32;100.00
46023;BME280;31756;47.936;16.224;2023-01-31T12:06:28;99021.00;;;4.58;100.00
46023;BME280;31756;47.936;16.224;2023-01-31T12:08:57;98982.09;;;4.59;100.00
46023;BME280;31756;47.936;16.224;2023-01-31T12:11:34;98992.47;;;4.79;100.00
46023;BME280;31756;47.936;16.224;2023-01-31T12:16:30;99003.56;;;4.90;100.00
46023;BME280;31756;47.936;16.224;2023-01-31T12:24:20;98997.63;;;4.90;100.00
46023;BME280;31756;47.936;16.224;2023-01-31T12:26:56;98982.41;;;4.91;100.00
46023;BME280;31756;47.936;16.224;2023-01-31T12:37:41;98985.84;;;4.95;100.00
46023;BME280;31756;47.936;16.224;2023-01-31T12:40:21;98994.25;;;4.88;100.00
46023;BME280;31756;47.936;16.224;2023-01-31T12:43:07;98985.78;;;4.90;100.00
46023;BME280;31756;47.936;16.224;2023-01-31T12:45:47;98998.63;;;5.05;100.00
46023;BME280;31756;47.936;16.224;2023-01-31T12:51:24;98963.91;;;5.06;100.00
46023;BME280;31756;47.936;16.224;2023-01-31T12:54:09;98958.88;;;5.09;100.00
46023;BME280;31756;47.936;16.224;2023-01-31T13:08:28;98948.47;;;4.85;100.00
46023;BME280;31756;47.936;16.224;2023-01-31T13:10:57;98951.94;;;4.93;100.00
46023;BME280;31756;47.936;16.224;2023-01-31T13:13:27;98958.63;;;4.85;100.00
46023;BME280;31756;47.936;16.224;2023-01-31T13:15:58;98947.63;;;4.84;100.00
46023;BME280;31756;47.936;16.224;2023-01-31T13:18:26;98956.28;;;5.04;100.00
46023;BME280;31756;47.936;16.224;2023-01-31T13:21:03;98924.03;;;4.96;100.00
46023;BME280;31756;47.936;16.224;2023-01-31T13:23:35;98946.00;;;4.94;100.00
46023;BME280;31756;47.936;16.224;2023-01-31T13:28:43;98935.03;;;4.95;100.00
46023;BME280;31756;47.936;16.224;2023-01-31T13:31:19;98944.38;;;4.99;99.52
46023;BME280;31756;47.936;16.224;2023-01-31T13:34:13;98918.94;;;4.94;98.81
46023;BME280;31756;47.936;16.224;2023-01-31T13:36:44;98926.81;;;5.31;95.91
46023;BME280;31756;47.936;16.224;2023-01-31T13:39:18;98925.97;;;5.35;95.09
46023;BME280;31756;47.936;16.224;2023-01-31T13:41:46;98949.72;;;5.34;94.50
46023;BME280;31756;47.936;16.224;2023-01-31T13:44:13;98918.22;;;5.09;92.00
46023;BME280;31756;47.936;16.224;2023-01-31T13:46:47;98934.25;;;5.06;90.73
46023;BME280;31756;47.936;16.224;2023-01-31T13:49:19;98950.50;;;5.27;90.56
46023;BME280;31756;47.936;16.224;2023-01-31T13:52:03;98951.34;;;5.24;90.69
46023;BME280;31756;47.936;16.224;2023-01-31T13:54:34;98924.09;;;5.10;89.13
46023;BME280;31756;47.936;16.224;2023-01-31T13:57:02;98931.78;;;5.14;88.93
46023;BME280;31756;47.936;16.224;2023-01-31T13:59:31;98925.03;;;5.22;88.37
46023;BME280;31756;47.936;16.224;2023-01-31T14:01:59;98932.63;;;5.13;86.98
46023;BME280;31756;47.936;16.224;2023-01-31T14:04:35;98930.06;;;5.09;88.31
46023;BME280;31756;47.936;16.224;2023-01-31T14:12:25;98920.72;;;5.11;85.78
46023;BME280;31756;47.936;16.224;2023-01-31T14:14:55;98923.25;;;5.07;85.27
46023;BME280;31756;47.936;16.224;2023-01-31T14:20:01;98925.91;;;5.21;88.81
46023;BME280;31756;47.936;16.224;2023-01-31T14:22:36;98918.31;;;5.27;83.46
46023;BME280;31756;47.936;16.224;2023-01-31T14:28:01;98919.19;;;5.32;84.32
46023;BME280;31756;47.936;16.224;2023-01-31T14:33:12;98913.16;;;5.15;86.72
46023;BME280;31756;47.936;16.224;2023-01-31T14:36:03;98918.22;;;5.12;87.00
46023;BME280;31756;47.936;16.224;2023-01-31T14:39:01;98896.22;;;5.16;87.04
46023;BME280;31756;47.936;16.224;2023-01-31T14:50:41;98919.81;;;5.01;89.08
46023;BME280;31756;47.936;16.224;2023-01-31T14:58:44;98897.88;;;5.11;87.25
46023;BME280;31756;47.936;16.224;2023-01-31T15:01:11;98908.81;;;5.05;87.92
46023;BME280;31756;47.936;16.224;2023-01-31T15:03:48;98905.47;;;5.07;86.77
46023;BME280;31756;47.936;16.224;2023-01-31T15:06:23;98889.28;;;4.95;87.59
46023;BME280;31756;47.936;16.224;2023-01-31T15:11:47;98907.19;;;5.09;88.87
46023;BME280;31756;47.936;16.224;2023-01-31T15:14:42;98894.44;;;5.02;88.68
46023;BME280;31756;47.936;16.224;2023-01-31T15:17:16;98881.63;;;4.90;88.67
46023;BME280;31756;47.936;16.224;2023-01-31T15:19:57;98893.53;;;4.97;90.61
46023;BME280;31756;47.936;16.224;2023-01-31T15:22:29;98892.72;;;5.00;89.12
46023;BME280;31756;47.936;16.224;2023-01-31T15:25:05;98895.19;;;4.92;90.04
46023;BME280;31756;47.936;16.224;2023-01-31T15:27:36;98878.22;;;4.88;88.78
46023;BME280;31756;47.936;16.224;2023-01-31T15:30:13;98885.03;;;4.94;88.80
46023;BME280;31756;47.936;16.224;2023-01-31T15:32:55;98871.38;;;4.78;89.47
46023;BME280;31756;47.936;16.224;2023-01-31T15:35:33;98889.25;;;4.90;90.54
46023;BME280;31756;47.936;16.224;2023-01-31T15:41:15;98888.38;;;4.87;90.46
46023;BME280;31756;47.936;16.224;2023-01-31T15:43:42;98893.44;;;4.82;91.43